Impacts TAF Board
For situational awareness. Not to be used for flight planning purposes.
IDs:

KDEN - Denver Intl, CO, US

Issued at 2331 UTC 15 Oct 2018
Updated at 0107 UTC 16 Oct 2018
Potential Impact None Slight Moderate High
Time<<16/14Z 16/15Z 16/16Z 16/17Z 16/18Z 16/19Z 16/20Z 16/21Z 16/22Z 16/23Z 17/00Z 17/01Z 17/02Z>>
Type PRVL PRVL PRVL PRVL PRVL PRVL PRVL PRVL PRVL PRVL PRVL PRVL PRVL
VIS >6 >6 >6 >6 >6 >6 >6 >6 >6 >6 >6 >6 >6
CIG -- -- -- -- -- -- -- -- -- -- -- -- --
Cover SKC SKC SKC FEW FEW FEW FEW FEW FEW FEW FEW FEW FEW
FltCat VFR VFR VFR VFR VFR VFR VFR VFR VFR VFR VFR VFR VFR
WX -- -- -- -- -- -- -- -- -- -- -- -- --
WDir 200 200 200 280 280 280 280 320 320 320 320 220 220
WSpd 8 8 8 7 7 7 7 8 8 8 8 9 9
WGst -- -- -- -- -- -- -- -- -- -- -- -- --
Raw TAF
KDEN 152331Z 1600/1706 34007KT P6SM FEW110
  FM160200 30006KT P6SM SKC
  FM160400 20008KT P6SM SKC
  FM161700 28007KT P6SM FEW250
  FM162100 32008KT P6SM FEW140
  FM170100 22009KT P6SM FEW250


METAR Board
Radar Display
Forecast Discussion
For situational awareness. Not to be used for flight planning purposes.